Map

Track Data

SID SEASON NUMBER BASIN SUBBASIN NAME ISO_TIME NATURE LAT LON WMO_WIND WMO_PRES WMO_AGENCY TRACK_TYPE DIST2LAND LANDFALL IFLAG USA_AGENCY USA_ATCF_ID USA_LAT USA_LON USA_RECORD USA_STATUS USA_WIND USA_PRES USA_SSHS USA_R34_NE USA_R34_SE USA_R34_SW USA_R34_NW USA_R50_NE USA_R50_SE USA_R50_SW USA_R50_NW USA_R64_NE USA_R64_SE USA_R64_SW USA_R64_NW USA_POCI USA_ROCI USA_RMW USA_EYE TOKYO_LAT TOKYO_LON TOKYO_GRADE TOKYO_WIND TOKYO_PRES TOKYO_R50_DIR TOKYO_R50_LONG TOKYO_R50_SHORT TOKYO_R30_DIR TOKYO_R30_LONG TOKYO_R30_SHORT TOKYO_LAND CMA_LAT CMA_LON CMA_CAT CMA_WIND CMA_PRES HKO_LAT HKO_LON HKO_CAT HKO_WIND HKO_PRES NEWDELHI_LAT NEWDELHI_LON NEWDELHI_GRADE NEWDELHI_WIND NEWDELHI_PRES NEWDELHI_CI NEWDELHI_DP NEWDELHI_POCI REUNION_LAT REUNION_LON REUNION_TYPE REUNION_WIND REUNION_PRES REUNION_TNUM REUNION_CI REUNION_RMW REUNION_R34_NE REUNION_R34_SE REUNION_R34_SW REUNION_R34_NW REUNION_R50_NE REUNION_R50_SE REUNION_R50_SW REUNION_R50_NW REUNION_R64_NE REUNION_R64_SE REUNION_R64_SW REUNION_R64_NW BOM_LAT BOM_LON BOM_TYPE BOM_WIND BOM_PRES BOM_TNUM BOM_CI BOM_RMW BOM_R34_NE BOM_R34_SE BOM_R34_SW BOM_R34_NW BOM_R50_NE BOM_R50_SE BOM_R50_SW BOM_R50_NW BOM_R64_NE BOM_R64_SE BOM_R64_SW BOM_R64_NW BOM_ROCI BOM_POCI BOM_EYE BOM_POS_METHOD BOM_PRES_METHOD NADI_LAT NADI_LON NADI_CAT NADI_WIND NADI_PRES WELLINGTON_LAT WELLINGTON_LON WELLINGTON_WIND WELLINGTON_PRES DS824_LAT DS824_LON DS824_STAGE DS824_WIND DS824_PRES TD9636_LAT TD9636_LON TD9636_STAGE TD9636_WIND TD9636_PRES TD9635_LAT TD9635_LON TD9635_WIND TD9635_PRES TD9635_ROCI NEUMANN_LAT NEUMANN_LON NEUMANN_CLASS NEUMANN_WIND NEUMANN_PRES MLC_LAT MLC_LON MLC_CLASS MLC_WIND MLC_PRES USA_GUST BOM_GUST BOM_GUST_PER REUNION_GUST REUNION_GUST_PER USA_SEAHGT USA_SEARAD_NE USA_SEARAD_SE USA_SEARAD_SW USA_SEARAD_NW STORM_SPEED STORM_DIR
1935243N15150 1935 48 WP MM NOT_NAMED 1935-08-30 21:00:00 NR 15.3000 150.000 main 1970 1968 __________O___ -1 15.3000 150.000 4 3 291
1935243N15150 1935 48 WP MM NOT_NAMED 1935-08-31 00:00:00 NR 15.3642 149.833 main 1978 1976 __________P___ -1 15.3642 149.833 4 4 293
1935243N15150 1935 48 WP MM NOT_NAMED 1935-08-31 03:00:00 NR 15.4426 149.652 main 1976 1975 __________P___ -1 15.4426 149.652 4 4 296
1935243N15150 1935 48 WP MM NOT_NAMED 1935-08-31 06:00:00 NR 15.5498 149.446 main 1983 1983 __________P___ -1 15.5498 149.446 4 5 301
1935243N15150 1935 48 WP MM NOT_NAMED 1935-08-31 09:00:00 NR 15.7000 149.200 main 2003 2002 __________O___ -1 15.7000 149.200 4 6 304
1935243N15150 1935 48 WP MM NOT_NAMED 1935-08-31 12:00:00 NR 15.9010 148.904 main 2023 2023 __________P___ -1 15.9010 148.904 4 8 305
1935243N15150 1935 48 WP MM NOT_NAMED 1935-08-31 15:00:00 NR 16.1346 148.555 main 2043 2042 __________P___ -1 16.1346 148.555 4 9 303
1935243N15150 1935 48 WP MM NOT_NAMED 1935-08-31 18:00:00 NR 16.3758 148.154 main 2074 2073 __________P___ -1 16.3758 148.154 4 9 300
1935243N15150 1935 48 WP MM NOT_NAMED 1935-08-31 21:00:00 NR 16.6000 147.700 main 2094 2094 __________O___ -1 16.6000 147.700 4 10 294
1935243N15150 1935 48 WP MM NOT_NAMED 1935-09-01 00:00:00 NR 16.7884 147.176 main 2117 2117 __________P___ -1 16.7884 147.176 4 11 289
1935243N15150 1935 48 WP MM NOT_NAMED 1935-09-01 03:00:00 NR 16.9533 146.608 main 2106 2081 __________P___ -1 16.9533 146.608 4 11 286
1935243N15150 1935 48 WP MM NOT_NAMED 1935-09-01 06:00:00 NR 17.0915 146.036 main 2078 2052 __________P___ -1 17.0915 146.036 4 11 283
1935243N15150 1935 48 WP MM NOT_NAMED 1935-09-01 09:00:00 NR 17.2000 145.500 main 2052 2024 __________O___ -1 17.2000 145.500 4 9 281
1935243N15150 1935 48 WP MM NOT_NAMED 1935-09-01 12:00:00 NR 17.2657 145.068 main 2024 2006 __________P___ -1 17.2657 145.068 4 8 278
1935243N15150 1935 48 WP MM NOT_NAMED 1935-09-01 15:00:00 NR 17.3063 144.677 main 2006 1988 __________P___ -1 17.3063 144.677 4 7 276
1935243N15150 1935 48 WP MM NOT_NAMED 1935-09-01 18:00:00 NR 17.3438 144.296 main 1988 1961 __________P___ -1 17.3438 144.296 4 7 277
1935243N15150 1935 48 WP MM NOT_NAMED 1935-09-01 21:00:00 NR 17.4000 143.900 main 1961 1935 __________O___ -1 17.4000 143.900 4 8 282
1935243N15150 1935 48 WP MM NOT_NAMED 1935-09-02 00:00:00 NR 17.5155 143.451 main 1935 1905 __________P___ -1 17.5155 143.451 4 9 286
1935243N15150 1935 48 WP MM NOT_NAMED 1935-09-02 03:00:00 NR 17.6497 142.980 main 1905 1866 __________P___ -1 17.6497 142.980 4 10 286
1935243N15150 1935 48 WP MM NOT_NAMED 1935-09-02 06:00:00 NR 17.7841 142.495 main 1866 1838 __________P___ -1 17.7841 142.495 4 10 285
1935243N15150 1935 48 WP MM NOT_NAMED 1935-09-02 09:00:00 NR 17.9000 142.000 main 1838 1818 __________O___ -1 17.9000 142.000 4 10 279
1935243N15150 1935 48 WP MM NOT_NAMED 1935-09-02 12:00:00 NR 17.9392 141.482 main 1818 1781 __________P___ -1 17.9392 141.482 4 10 274
1935243N15150 1935 48 WP MM NOT_NAMED 1935-09-02 15:00:00 NR 17.9627 140.961 main 1781 1735 __________P___ -1 17.9627 140.961 4 10 274
1935243N15150 1935 48 WP MM NOT_NAMED 1935-09-02 18:00:00 NR 18.0049 140.460 main 1735 1690 __________P___ -1 18.0049 140.460 4 9 279
1935243N15150 1935 48 WP MM NOT_NAMED 1935-09-02 21:00:00 NR 18.1000 140.000 main 1690 1659 __________O___ -1 18.1000 140.000 4 8 289
1935243N15150 1935 48 WP MM NOT_NAMED 1935-09-03 00:00:00 NR 18.2876 139.619 main 1659 1638 __________P___ -1 18.2876 139.619 4 8 302
1935243N15150 1935 48 WP MM NOT_NAMED 1935-09-03 03:00:00 NR 18.5314 139.277 main 1638 1597 __________P___ -1 18.5314 139.277 4 8 309
1935243N15150 1935 48 WP MM NOT_NAMED 1935-09-03 06:00:00 NR 18.8096 138.947 main 1592 1547 __________P___ -1 18.8096 138.947 4 9 312
1935243N15150 1935 48 WP MM NOT_NAMED 1935-09-03 09:00:00 NR 19.1000 138.600 main 1547 1498 __________O___ -1 19.1000 138.600 4 9 308
1935243N15150 1935 48 WP MM NOT_NAMED 1935-09-03 12:00:00 NR 19.3720 138.184 main 1498 1458 __________P___ -1 19.3720 138.184 4 10 304
1935243N15150 1935 48 WP MM NOT_NAMED 1935-09-03 15:00:00 NR 19.6502 137.750 main 1448 1404 __________P___ -1 19.6502 137.750 4 10 304
1935243N15150 1935 48 WP MM NOT_NAMED 1935-09-03 18:00:00 NR 19.9283 137.316 main 1404 1356 __________P___ -1 19.9283 137.316 4 10 305
1935243N15150 1935 48 WP MM NOT_NAMED 1935-09-03 21:00:00 NR 20.2000 136.900 main 1356 1322 __________O___ -1 20.2000 136.900 4 9 306
1935243N15150 1935 48 WP MM NOT_NAMED 1935-09-04 00:00:00 NR 20.4523 136.552 main 1312 1274 __________P___ -1 20.4523 136.552 4 8 308
1935243N15150 1935 48 WP MM NOT_NAMED 1935-09-04 03:00:00 NR 20.6988 136.221 main 1274 1241 __________P___ -1 20.6988 136.221 4 8 308
1935243N15150 1935 48 WP MM NOT_NAMED 1935-09-04 06:00:00 NR 20.9460 135.880 main 1241 1194 __________P___ -1 20.9460 135.880 4 8 307
1935243N15150 1935 48 WP MM NOT_NAMED 1935-09-04 09:00:00 NR 21.2000 135.500 main 1194 1154 __________O___ -1 21.2000 135.500 4 10 302
1935243N15150 1935 48 WP MM NOT_NAMED 1935-09-04 12:00:00 NR 21.4565 134.999 main 1144 1105 __________P___ -1 21.4565 134.999 4 11 298
1935243N15150 1935 48 WP MM NOT_NAMED 1935-09-04 15:00:00 NR 21.7213 134.463 main 1105 1057 __________P___ -1 21.7213 134.463 4 11 299
1935243N15150 1935 48 WP MM NOT_NAMED 1935-09-04 18:00:00 NR 22.0003 133.946 main 1054 1010 __________P___ -1 22.0003 133.946 4 11 303
1935243N15150 1935 48 WP MM NOT_NAMED 1935-09-04 21:00:00 NR 22.3000 133.500 main 1010 970 __________O___ -1 22.3000 133.500 4 9 313
1935243N15150 1935 48 WP MM NOT_NAMED 1935-09-05 00:00:00 NR 22.6312 133.223 main 970 921 __________P___ -1 22.6312 133.223 4 8 327
1935243N15150 1935 48 WP MM NOT_NAMED 1935-09-05 03:00:00 NR 22.9833 133.018 main 921 884 __________P___ -1 22.9833 133.018 4 8 333
1935243N15150 1935 48 WP MM NOT_NAMED 1935-09-05 06:00:00 NR 23.3438 132.829 main 884 836 __________P___ -1 23.3438 132.829 4 8 332
1935243N15150 1935 48 WP MM NOT_NAMED 1935-09-05 09:00:00 NR 23.7000 132.600 main 836 797 __________O___ -1 23.7000 132.600 4 9 322
1935243N15150 1935 48 WP MM NOT_NAMED 1935-09-05 12:00:00 NR 24.0325 132.242 main 795 757 __________P___ -1 24.0325 132.242 4 10 313
1935243N15150 1935 48 WP MM NOT_NAMED 1935-09-05 15:00:00 NR 24.3580 131.838 main 744 706 __________P___ -1 24.3580 131.838 4 10 311
1935243N15150 1935 48 WP MM NOT_NAMED 1935-09-05 18:00:00 NR 24.6794 131.414 main 706 670 __________P___ -1 24.6794 131.414 4 10 310
1935243N15150 1935 48 WP MM NOT_NAMED 1935-09-05 21:00:00 NR 25.0000 131.000 main 670 636 __________O___ -1 25.0000 131.000 4 9 310
1935243N15150 1935 48 WP MM NOT_NAMED 1935-09-06 00:00:00 NR 25.2717 130.642 main 636 614 __________P___ -1 25.2717 130.642 4 8 311
1935243N15150 1935 48 WP MM NOT_NAMED 1935-09-06 03:00:00 NR 25.5518 130.297 main 604 573 __________P___ -1 25.5518 130.297 4 9 314
1935243N15150 1935 48 WP MM NOT_NAMED 1935-09-06 06:00:00 NR 25.8811 129.954 main 573 535 __________P___ -1 25.8811 129.954 4 10 320
1935243N15150 1935 48 WP MM NOT_NAMED 1935-09-06 09:00:00 NR 26.3000 129.600 main 535 480 __________O___ -1 26.3000 129.600 4 12 327
1935243N15150 1935 48 WP MM NOT_NAMED 1935-09-06 12:00:00 NR 26.8889 129.220 main 480 427 __________P___ -1 26.8889 129.220 4 14 331
1935243N15150 1935 48 WP MM NOT_NAMED 1935-09-06 15:00:00 NR 27.5623 128.824 main 421 372 __________P___ -1 27.5623 128.824 4 15 332
1935243N15150 1935 48 WP MM NOT_NAMED 1935-09-06 18:00:00 NR 28.2545 128.416 main 367 332 __________P___ -1 28.2545 128.416 4 15 332
1935243N15150 1935 48 WP MM NOT_NAMED 1935-09-06 21:00:00 NR 28.9000 128.000 main 332 320 __________O___ -1 28.9000 128.000 4 14 327
1935243N15150 1935 48 WP MM NOT_NAMED 1935-09-07 00:00:00 NR 29.3830 127.568 main 320 320 __________P___ -1 29.3830 127.568 4 12 320
1935243N15150 1935 48 WP MM NOT_NAMED 1935-09-07 03:00:00 NR 29.8149 127.132 main 335 329 __________P___ -1 29.8149 127.132 4 11 319
1935243N15150 1935 48 WP MM NOT_NAMED 1935-09-07 06:00:00 NR 30.2393 126.705 main 334 278 __________P___ -1 30.2393 126.705 4 11 321
1935243N15150 1935 48 WP MM NOT_NAMED 1935-09-07 09:00:00 NR 30.7000 126.300 main 278 215 __________O___ -1 30.7000 126.300 4 13 326
1935243N15150 1935 48 WP MM NOT_NAMED 1935-09-07 12:00:00 NR 31.3342 125.862 main 215 153 __________P___ -1 31.3342 125.862 4 15 331
1935243N15150 1935 48 WP MM NOT_NAMED 1935-09-07 15:00:00 NR 31.9978 125.454 main 153 128 __________P___ -1 31.9978 125.454 4 14 334
1935243N15150 1935 48 WP MM NOT_NAMED 1935-09-07 18:00:00 NR 32.6124 125.119 main 128 116 __________P___ -1 32.6124 125.119 4 12 337
1935243N15150 1935 48 WP MM NOT_NAMED 1935-09-07 21:00:00 NR 33.1000 124.900 main 122 121 __________O___ -1 33.1000 124.900 4 8 338
1935243N15150 1935 48 WP MM NOT_NAMED 1935-09-08 00:00:00 NR 33.3353 124.762 main 129 129 __________P___ -1 33.3353 124.762 4 4 341
1935243N15150 1935 48 WP MM NOT_NAMED 1935-09-08 03:00:00 NR 33.4446 124.757 main 130 122 __________P___ -1 33.4446 124.757 4 2 33
1935243N15150 1935 48 WP MM NOT_NAMED 1935-09-08 06:00:00 NR 33.5067 124.899 main 122 98 __________P___ -1 33.5067 124.899 4 4 67
1935243N15150 1935 48 WP MM NOT_NAMED 1935-09-08 09:00:00 NR 33.6000 125.200 main 98 72 __________O___ -1 33.6000 125.200 4 7 65
1935243N15150 1935 48 WP MM NOT_NAMED 1935-09-08 12:00:00 NR 33.8090 125.663 main 64 43 __________P___ -1 33.8090 125.663 4 10 63
1935243N15150 1935 48 WP MM NOT_NAMED 1935-09-08 15:00:00 NR 34.0621 126.278 main 28 11 __________P___ -1 34.0621 126.278 4 12 63
1935243N15150 1935 48 WP MM NOT_NAMED 1935-09-08 18:00:00 NR 34.3588 126.979 main 9 0 __________P___ -1 34.3588 126.979 4 13 61
1935243N15150 1935 48 WP MM NOT_NAMED 1935-09-08 21:00:00 NR 34.7000 127.700 main 9 0 __________O___ -1 34.7000 127.700 4 12 57
1935243N15150 1935 48 WP MM NOT_NAMED 1935-09-09 00:00:00 NR 35.0264 128.228 main 0 0 __________P___ -1 35.0264 128.228 4 11 51
1935243N15150 1935 48 WP MM NOT_NAMED 1935-09-09 03:00:00 NR 35.4040 128.778 main 0 0 __________P___ -1 35.4040 128.778 4 13 50
1935243N15150 1935 48 WP MM NOT_NAMED 1935-09-09 06:00:00 NR 35.8551 129.438 main 0 0 __________P___ -1 35.8551 129.438 4 16 51
1935243N15150 1935 48 WP MM NOT_NAMED 1935-09-09 09:00:00 NR 36.4000 130.300 main 76 76 __________O___ -1 36.4000 130.300 4 22 52
1935243N15150 1935 48 WP MM NOT_NAMED 1935-09-09 12:00:00 NR 37.2026 131.598 main 194 194 __________P___ -1 37.2026 131.598 4 28 53
1935243N15150 1935 48 WP MM NOT_NAMED 1935-09-09 15:00:00 NR 38.0580 133.106 main 289 247 __________P___ -1 38.0580 133.106 4 29 56
1935243N15150 1935 48 WP MM NOT_NAMED 1935-09-09 18:00:00 NR 38.8068 134.642 main 247 218 __________P___ -1 38.8068 134.642 4 26 61
1935243N15150 1935 48 WP MM NOT_NAMED 1935-09-09 21:00:00 NR 39.3000 136.000 main 222 212 __________O___ -1 39.3000 136.000 4 16 74
1935243N15150 1935 48 WP MM NOT_NAMED 1935-09-10 00:00:00 NR 39.2594 136.624 main 212 178 __________P___ -1 39.2594 136.624 4 9 111
1935243N15150 1935 48 WP MM NOT_NAMED 1935-09-10 03:00:00 NR 38.9905 137.060 main 178 144 __________P___ -1 38.9905 137.060 4 10 127
1935243N15150 1935 48 WP MM NOT_NAMED 1935-09-10 06:00:00 NR 38.6781 137.615 main 144 79 __________P___ -1 38.6781 137.615 4 13 112
1935243N15150 1935 48 WP MM NOT_NAMED 1935-09-10 09:00:00 NR 38.5000 138.600 main 75 0 __________O___ -1 38.5000 138.600 4 23 90
1935243N15150 1935 48 WP MM NOT_NAMED 1935-09-10 12:00:00 NR 38.6764 140.622 main 0 0 __________P___ -1 38.6764 140.622 4 35 83
1935243N15150 1935 48 WP MM NOT_NAMED 1935-09-10 15:00:00 NR 38.9618 143.096 main 102 102 __________P___ -1 38.9618 143.096 4 40 81
1935243N15150 1935 48 WP MM NOT_NAMED 1935-09-10 18:00:00 NR 39.2840 145.676 main 309 309 __________P___ -1 39.2840 145.676 4 38 80
1935243N15150 1935 48 WP MM NOT_NAMED 1935-09-10 21:00:00 NR 39.6000 148.000 main 451 451 __________O___ -1 39.6000 148.000 4 29 80
1935243N15150 1935 48 WP MM NOT_NAMED 1935-09-11 00:00:00 NR 39.7707 149.432 main 497 497 __________P___ -1 39.7707 149.432 4 20 79
1935243N15150 1935 48 WP MM NOT_NAMED 1935-09-11 03:00:00 NR 39.9871 150.575 main 552 552 __________P___ -1 39.9871 150.575 4 18 73
1935243N15150 1935 48 WP MM NOT_NAMED 1935-09-11 06:00:00 NR 40.3124 151.679 main 601 592 __________P___ -1 40.3124 151.679 4 20 66
1935243N15150 1935 48 WP MM NOT_NAMED 1935-09-11 09:00:00 NR 40.8000 153.000 main 596 591 __________O___ -1 40.8000 153.000 4 26 63
1935243N15150 1935 48 WP MM NOT_NAMED 1935-09-11 12:00:00 NR 41.4743 154.749 main 607 607 __________P___ -1 41.4743 154.749 4 33 63
1935243N15150 1935 48 WP MM NOT_NAMED 1935-09-11 15:00:00 NR 42.2800 156.899 main 666 666 __________P___ -1 42.2800 156.899 4 38 64
1935243N15150 1935 48 WP MM NOT_NAMED 1935-09-11 18:00:00 NR 43.1443 159.354 main 783 783 __________P___ -1 43.1443 159.354 4 41 65
1935243N15150 1935 48 WP MM NOT_NAMED 1935-09-11 21:00:00 NR 44.0000 162.000 main 827 __________O___ -1 44.0000 162.000 4 42 66

Digital Typhoon Data and Search

About IBTrACS Database

This database is a web-friendly format of International Best Track Archive for Climate Stewardship (IBTrACS), a global best track data archive curated by NOAA dating back to 1842.

Updated: 2021-10-21